Аэропорт: Основа. Харьков

ICAO: UKHH

METAR:
2019/01/21 23:00
UKHH 212300Z 31003MPS 2500 BR NSC M12/M14 Q1019 R25/85//56 NOSIG
METAR:
2019/01/21 21:24
TAF 
      AMD TAF 
      AMD UKHH 212122Z 2121/2218 27003MPS 1200 BR SCT006 
      TEMPO 2121/2124 0400 FZFG VV002 
      BECMG 2123/2201 0300 FZFG BKN001 
      BECMG 2208/2209 2100 BR BKN007 
      TEMPO 2215/2218 0400 FZFG VV002